ASA39 KSFO-PHKO
Flight info
| Callsign | ASA39 |
|---|---|
| Flight time | 5h 28m |
| Altitude | 36000 |
| Route | GNNRR3 BEBOP R464 BARAZ/N0458F380 R464 BITTA ONOHI VECKI9 |
| Aircraft | B38M/M-SDE1FGHILORVWXY/HB1 |
Departure
| Time | 2026-04-10 00:33 |
|---|---|
| Airport | San Francisco International Airport (KSFO) |
Arrival
| Time | 2026-04-10 06:01 |
|---|---|
| Airport | Ellison Onizuka Kona International Airport at Keāhole (PHKO) |
| Time | Latitude | Longitude | Altitude | Speed | Heading |
|---|---|---|---|---|---|
| 2026-04-09 23:57 | 37.61307 | -122.38362 | 23 ft | 0 kts | 297° |
| 2026-04-10 00:08 | 37.61306 | -122.38362 | 32 ft | 0 kts | 297° |
| 2026-04-10 00:19 | 37.61297 | -122.38336 | 27 ft | 3 kts | 297° |
| 2026-04-10 00:20 | 37.61282 | -122.38313 | 25 ft | 4 kts | 340° |
| 2026-04-10 00:20 | 37.61259 | -122.38316 | 24 ft | 4 kts | 27° |
| 2026-04-10 00:20 | 37.61244 | -122.38326 | 26 ft | 0 kts | 28° |
| 2026-04-10 00:27 | 37.61258 | -122.38317 | 24 ft | 8 kts | 28° |
| 2026-04-10 00:27 | 37.61295 | -122.38291 | 25 ft | 3 kts | 38° |
| 2026-04-10 00:28 | 37.61327 | -122.38208 | 24 ft | 18 kts | 67° |
| 2026-04-10 00:28 | 37.61403 | -122.38123 | 23 ft | 11 kts | 62° |
| 2026-04-10 00:28 | 37.61373 | -122.38014 | 23 ft | 16 kts | 119° |
| 2026-04-10 00:28 | 37.61318 | -122.37882 | 23 ft | 18 kts | 116° |
| 2026-04-10 00:29 | 37.61257 | -122.37737 | 25 ft | 19 kts | 118° |
| 2026-04-10 00:29 | 37.61233 | -122.37572 | 23 ft | 22 kts | 81° |
| 2026-04-10 00:29 | 37.61349 | -122.37434 | 23 ft | 25 kts | 26° |
| 2026-04-10 00:29 | 37.61506 | -122.37334 | 25 ft | 26 kts | 28° |
| 2026-04-10 00:30 | 37.61558 | -122.37139 | 23 ft | 26 kts | 102° |
| 2026-04-10 00:30 | 37.61475 | -122.36939 | 25 ft | 27 kts | 127° |
| 2026-04-10 00:30 | 37.61354 | -122.36757 | 25 ft | 28 kts | 116° |
| 2026-04-10 00:30 | 37.61262 | -122.36540 | 27 ft | 29 kts | 118° |
| 2026-04-10 00:31 | 37.61168 | -122.36313 | 25 ft | 30 kts | 117° |
| 2026-04-10 00:31 | 37.61071 | -122.36078 | 24 ft | 31 kts | 118° |
| 2026-04-10 00:31 | 37.61124 | -122.35886 | 25 ft | 22 kts | 22° |
| 2026-04-10 00:31 | 37.61205 | -122.35920 | 23 ft | 0 kts | 296° |
| 2026-04-10 00:32 | 37.61217 | -122.35949 | 23 ft | 21 kts | 297° |
| 2026-04-10 00:32 | 37.61400 | -122.36395 | 26 ft | 92 kts | 298° |
| 2026-04-10 00:32 | 37.61801 | -122.37337 | 24 ft | 149 kts | 297° |
| 2026-04-10 00:32 | 37.62350 | -122.38630 | 321 ft | 172 kts | 297° |
| 2026-04-10 00:33 | 37.62919 | -122.39961 | 1171 ft | 174 kts | 296° |
| 2026-04-10 00:33 | 37.63304 | -122.40853 | 1748 ft | 171 kts | 296° |
| 2026-04-10 00:33 | 37.64108 | -122.42718 | 2427 ft | 195 kts | 296° |
| 2026-04-10 00:33 | 37.64803 | -122.44312 | 2789 ft | 223 kts | 296° |
| 2026-04-10 00:34 | 37.65323 | -122.45493 | 3076 ft | 238 kts | 297° |
| 2026-04-10 00:34 | 37.66156 | -122.47373 | 3808 ft | 249 kts | 296° |
| 2026-04-10 00:34 | 37.66931 | -122.49371 | 4375 ft | 263 kts | 281° |
| 2026-04-10 00:34 | 37.66961 | -122.51628 | 5310 ft | 255 kts | 254° |
| 2026-04-10 00:35 | 37.66479 | -122.53795 | 6179 ft | 260 kts | 250° |
| 2026-04-10 00:35 | 37.65956 | -122.55994 | 7064 ft | 262 kts | 250° |
| 2026-04-10 00:35 | 37.65408 | -122.58218 | 7910 ft | 268 kts | 249° |
| 2026-04-10 00:35 | 37.64843 | -122.60469 | 8749 ft | 271 kts | 249° |
| 2026-04-10 00:36 | 37.64255 | -122.62784 | 9600 ft | 275 kts | 249° |
| 2026-04-10 00:36 | 37.63668 | -122.65070 | 10325 ft | 282 kts | 248° |
| 2026-04-10 00:36 | 37.63043 | -122.67493 | 10713 ft | 301 kts | 248° |
| 2026-04-10 00:36 | 37.62374 | -122.70079 | 11002 ft | 321 kts | 248° |
| 2026-04-10 00:37 | 37.61659 | -122.72839 | 11303 ft | 340 kts | 249° |
| 2026-04-10 00:37 | 37.60908 | -122.75730 | 11730 ft | 352 kts | 248° |
| 2026-04-10 00:37 | 37.60142 | -122.78672 | 12502 ft | 353 kts | 248° |
| 2026-04-10 00:37 | 37.59372 | -122.81631 | 13186 ft | 359 kts | 248° |
| 2026-04-10 00:38 | 37.58587 | -122.84645 | 13879 ft | 363 kts | 248° |
| 2026-04-10 00:38 | 37.57794 | -122.87686 | 14522 ft | 366 kts | 248° |
| 2026-04-10 00:38 | 37.56998 | -122.90732 | 15201 ft | 368 kts | 248° |
| 2026-04-10 00:38 | 37.56203 | -122.93774 | 15884 ft | 371 kts | 248° |
| 2026-04-10 00:39 | 37.55409 | -122.96883 | 16559 ft | 373 kts | 248° |
| 2026-04-10 00:39 | 37.54613 | -123.00011 | 17214 ft | 376 kts | 248° |
| 2026-04-10 00:39 | 37.53811 | -123.03152 | 17854 ft | 379 kts | 248° |
| 2026-04-10 00:39 | 37.53000 | -123.06323 | 18456 ft | 382 kts | 248° |
| 2026-04-10 00:40 | 37.52182 | -123.09515 | 19012 ft | 384 kts | 248° |
| 2026-04-10 00:40 | 37.51358 | -123.12727 | 19562 ft | 386 kts | 248° |
| 2026-04-10 00:40 | 37.50529 | -123.15958 | 20087 ft | 389 kts | 248° |
| 2026-04-10 00:40 | 37.49693 | -123.19208 | 20625 ft | 391 kts | 248° |
| 2026-04-10 00:41 | 37.48851 | -123.22476 | 21146 ft | 394 kts | 248° |
| 2026-04-10 00:41 | 37.48004 | -123.25764 | 21664 ft | 396 kts | 248° |
| 2026-04-10 00:41 | 37.47149 | -123.29074 | 22181 ft | 399 kts | 248° |
| 2026-04-10 00:41 | 37.46287 | -123.32409 | 22674 ft | 401 kts | 248° |
| 2026-04-10 00:42 | 37.45420 | -123.35760 | 23186 ft | 404 kts | 248° |
| 2026-04-10 00:42 | 37.44544 | -123.39137 | 23658 ft | 406 kts | 248° |
| 2026-04-10 00:42 | 37.43666 | -123.42521 | 24061 ft | 409 kts | 248° |
| 2026-04-10 00:42 | 37.42780 | -123.45931 | 24462 ft | 411 kts | 248° |
| 2026-04-10 00:43 | 37.41890 | -123.49351 | 24870 ft | 413 kts | 248° |
| 2026-04-10 00:43 | 37.40993 | -123.52795 | 25263 ft | 415 kts | 248° |
| 2026-04-10 00:43 | 37.40089 | -123.56257 | 25655 ft | 417 kts | 248° |
| 2026-04-10 00:43 | 37.39184 | -123.59721 | 26031 ft | 419 kts | 248° |
| 2026-04-10 00:44 | 37.38269 | -123.63221 | 26414 ft | 421 kts | 247° |
| 2026-04-10 00:44 | 37.37351 | -123.66725 | 26789 ft | 424 kts | 247° |
| 2026-04-10 00:44 | 37.36426 | -123.70252 | 27157 ft | 425 kts | 247° |
| 2026-04-10 00:44 | 37.35494 | -123.73798 | 27514 ft | 428 kts | 247° |
| 2026-04-10 00:45 | 37.34560 | -123.77349 | 27868 ft | 430 kts | 247° |
| 2026-04-10 00:45 | 37.33617 | -123.80930 | 28203 ft | 432 kts | 247° |
| 2026-04-10 00:45 | 37.32669 | -123.84522 | 28547 ft | 434 kts | 247° |
| 2026-04-10 00:45 | 37.31716 | -123.88127 | 28884 ft | 436 kts | 247° |
| 2026-04-10 00:46 | 37.30760 | -123.91742 | 29287 ft | 436 kts | 247° |
| 2026-04-10 00:46 | 37.29804 | -123.95352 | 29772 ft | 435 kts | 247° |
| 2026-04-10 00:46 | 37.28852 | -123.98941 | 30209 ft | 433 kts | 247° |
| 2026-04-10 00:46 | 37.27898 | -124.02532 | 30587 ft | 433 kts | 247° |
| 2026-04-10 00:47 | 37.26944 | -124.06119 | 30934 ft | 432 kts | 247° |
| 2026-04-10 00:47 | 37.25991 | -124.09697 | 31277 ft | 432 kts | 247° |
| 2026-04-10 00:47 | 37.25038 | -124.13270 | 31612 ft | 432 kts | 247° |
| 2026-04-10 00:47 | 37.24082 | -124.16846 | 31941 ft | 432 kts | 247° |
| 2026-04-10 00:48 | 37.23126 | -124.20423 | 32277 ft | 432 kts | 247° |
| 2026-04-10 00:48 | 37.22169 | -124.23994 | 32617 ft | 432 kts | 247° |
| 2026-04-10 00:48 | 37.21212 | -124.27560 | 32944 ft | 432 kts | 247° |
| 2026-04-10 00:48 | 37.20254 | -124.31129 | 33264 ft | 431 kts | 247° |
| 2026-04-10 00:49 | 37.19295 | -124.34693 | 33571 ft | 432 kts | 247° |
| 2026-04-10 00:49 | 37.18333 | -124.38263 | 33883 ft | 431 kts | 247° |
| 2026-04-10 00:49 | 37.17372 | -124.41829 | 34147 ft | 432 kts | 248° |
| 2026-04-10 00:49 | 37.16411 | -124.45386 | 34391 ft | 432 kts | 248° |
| 2026-04-10 00:50 | 37.15443 | -124.48963 | 34627 ft | 432 kts | 248° |
| 2026-04-10 00:50 | 37.14480 | -124.52522 | 34862 ft | 432 kts | 248° |
| 2026-04-10 00:50 | 37.13512 | -124.56090 | 35102 ft | 432 kts | 248° |
| 2026-04-10 00:50 | 37.12542 | -124.59661 | 35337 ft | 433 kts | 248° |
| 2026-04-10 00:51 | 37.11573 | -124.63227 | 35551 ft | 433 kts | 248° |
| 2026-04-10 00:51 | 37.10600 | -124.66801 | 35776 ft | 433 kts | 248° |
| 2026-04-10 00:51 | 37.09625 | -124.70376 | 35950 ft | 434 kts | 248° |
| 2026-04-10 00:51 | 37.08649 | -124.73950 | 35977 ft | 434 kts | 248° |
| 2026-04-10 00:52 | 37.06695 | -124.81089 | 35972 ft | 433 kts | 248° |
| 2026-04-10 00:52 | 37.04742 | -124.88211 | 35972 ft | 433 kts | 248° |
| 2026-04-10 00:53 | 37.02781 | -124.95338 | 35973 ft | 433 kts | 248° |
| 2026-04-10 00:53 | 37.00815 | -125.02466 | 35972 ft | 433 kts | 248° |
| 2026-04-10 00:54 | 36.98859 | -125.09542 | 35968 ft | 433 kts | 248° |
| 2026-04-10 00:54 | 36.96885 | -125.16659 | 35967 ft | 433 kts | 248° |
| 2026-04-10 00:55 | 36.94894 | -125.23821 | 35967 ft | 433 kts | 248° |
| 2026-04-10 00:55 | 36.92923 | -125.30892 | 35967 ft | 434 kts | 248° |
| 2026-04-10 00:56 | 36.90934 | -125.38005 | 35966 ft | 434 kts | 248° |
| 2026-04-10 00:56 | 36.88940 | -125.45119 | 35967 ft | 434 kts | 248° |
| 2026-04-10 00:57 | 36.86940 | -125.52239 | 35970 ft | 434 kts | 248° |
| 2026-04-10 00:57 | 36.84961 | -125.59261 | 35970 ft | 435 kts | 248° |
| 2026-04-10 00:58 | 36.82951 | -125.66380 | 35967 ft | 435 kts | 248° |
| 2026-04-10 00:58 | 36.80934 | -125.73501 | 35965 ft | 435 kts | 248° |
| 2026-04-10 00:59 | 36.78932 | -125.80552 | 35967 ft | 436 kts | 248° |
| 2026-04-10 00:59 | 36.76904 | -125.87673 | 35962 ft | 436 kts | 248° |
| 2026-04-10 01:00 | 36.74890 | -125.94727 | 35963 ft | 436 kts | 248° |
| 2026-04-10 01:00 | 36.72851 | -126.01854 | 35961 ft | 437 kts | 248° |
| 2026-04-10 01:01 | 36.70830 | -126.08895 | 35963 ft | 437 kts | 248° |
| 2026-04-10 01:01 | 36.68774 | -126.16042 | 35961 ft | 438 kts | 248° |
| 2026-04-10 01:02 | 36.66715 | -126.23182 | 35959 ft | 438 kts | 248° |
| 2026-04-10 01:02 | 36.64674 | -126.30238 | 35961 ft | 438 kts | 248° |
| 2026-04-10 01:03 | 36.62606 | -126.37374 | 35959 ft | 439 kts | 248° |
| 2026-04-10 01:03 | 36.60554 | -126.44431 | 35955 ft | 439 kts | 249° |
| 2026-04-10 01:04 | 36.58472 | -126.51576 | 35951 ft | 439 kts | 249° |
| 2026-04-10 01:04 | 36.56392 | -126.58696 | 35958 ft | 439 kts | 249° |
| 2026-04-10 01:05 | 36.54321 | -126.65766 | 35959 ft | 439 kts | 249° |
| 2026-04-10 01:05 | 36.52227 | -126.72894 | 35953 ft | 439 kts | 249° |
| 2026-04-10 01:06 | 36.50271 | -126.79538 | 35955 ft | 439 kts | 249° |
| 2026-04-10 01:06 | 36.48166 | -126.86673 | 35954 ft | 440 kts | 249° |
| 2026-04-10 01:07 | 36.46089 | -126.93727 | 35948 ft | 440 kts | 249° |
| 2026-04-10 01:07 | 36.44020 | -127.00889 | 35949 ft | 440 kts | 249° |
| 2026-04-10 01:08 | 36.41946 | -127.08035 | 35947 ft | 440 kts | 249° |
| 2026-04-10 01:08 | 36.39888 | -127.15107 | 35950 ft | 440 kts | 249° |
| 2026-04-10 01:09 | 36.37801 | -127.22260 | 35947 ft | 440 kts | 249° |
| 2026-04-10 01:09 | 36.35734 | -127.29326 | 35949 ft | 440 kts | 249° |
| 2026-04-10 01:10 | 36.33639 | -127.36469 | 35944 ft | 440 kts | 249° |
| 2026-04-10 01:10 | 36.31545 | -127.43593 | 35938 ft | 440 kts | 250° |
| 2026-04-10 01:11 | 36.29466 | -127.50642 | 35940 ft | 440 kts | 250° |
| 2026-04-10 01:11 | 36.27360 | -127.57770 | 35942 ft | 440 kts | 250° |
| 2026-04-10 01:12 | 36.25276 | -127.64803 | 35942 ft | 440 kts | 250° |
| 2026-04-10 01:12 | 36.23162 | -127.71920 | 35940 ft | 440 kts | 250° |
| 2026-04-10 01:13 | 36.21065 | -127.78962 | 35939 ft | 440 kts | 250° |
| 2026-04-10 01:13 | 36.18942 | -127.86074 | 35942 ft | 441 kts | 250° |
| 2026-04-10 01:14 | 36.16814 | -127.93185 | 35938 ft | 441 kts | 250° |
| 2026-04-10 01:14 | 36.14705 | -128.00217 | 35941 ft | 441 kts | 250° |
| 2026-04-10 01:15 | 36.12563 | -128.07337 | 35933 ft | 441 kts | 250° |
| 2026-04-10 01:15 | 36.10443 | -128.14370 | 35940 ft | 441 kts | 250° |
| 2026-04-10 01:16 | 36.08307 | -128.21435 | 35939 ft | 442 kts | 250° |
| 2026-04-10 01:17 | 36.05096 | -128.32024 | 35939 ft | 442 kts | 250° |
| 2026-04-10 01:17 | 36.02934 | -128.39133 | 35942 ft | 442 kts | 250° |
| 2026-04-10 01:18 | 36.01114 | -128.45101 | 35939 ft | 442 kts | 250° |
| 2026-04-10 01:18 | 35.98967 | -128.52131 | 35935 ft | 442 kts | 250° |
| 2026-04-10 01:19 | 35.96791 | -128.59234 | 35935 ft | 443 kts | 250° |
| 2026-04-10 01:19 | 35.94631 | -128.66269 | 35944 ft | 443 kts | 250° |
| 2026-04-10 01:20 | 35.92446 | -128.73365 | 35946 ft | 443 kts | 251° |
| 2026-04-10 01:20 | 35.90282 | -128.80382 | 35943 ft | 443 kts | 251° |
| 2026-04-10 01:21 | 35.88087 | -128.87476 | 35950 ft | 443 kts | 251° |
| 2026-04-10 01:21 | 35.85890 | -128.94561 | 35943 ft | 443 kts | 251° |
| 2026-04-10 01:22 | 35.83712 | -129.01569 | 35951 ft | 443 kts | 251° |
| 2026-04-10 01:22 | 35.81504 | -129.08654 | 35950 ft | 442 kts | 251° |
| 2026-04-10 01:23 | 35.79321 | -129.15644 | 35959 ft | 442 kts | 251° |
| 2026-04-10 01:23 | 35.77110 | -129.22706 | 35957 ft | 442 kts | 251° |
| 2026-04-10 01:24 | 35.74894 | -129.29766 | 35955 ft | 442 kts | 251° |
| 2026-04-10 01:24 | 35.72711 | -129.36705 | 35960 ft | 442 kts | 251° |
| 2026-04-10 01:25 | 35.70488 | -129.43754 | 35962 ft | 442 kts | 251° |
| 2026-04-10 01:25 | 35.68284 | -129.50727 | 35963 ft | 442 kts | 251° |
| 2026-04-10 01:26 | 35.66054 | -129.57766 | 35967 ft | 442 kts | 251° |
| 2026-04-10 01:26 | 35.63844 | -129.64722 | 35970 ft | 442 kts | 251° |
| 2026-04-10 01:27 | 35.61604 | -129.71756 | 35972 ft | 441 kts | 251° |
| 2026-04-10 01:27 | 35.59364 | -129.78776 | 35975 ft | 441 kts | 251° |
| 2026-04-10 01:28 | 35.57146 | -129.85708 | 35979 ft | 441 kts | 252° |
| 2026-04-10 01:28 | 35.54902 | -129.92708 | 35980 ft | 441 kts | 252° |
| 2026-04-10 01:29 | 35.52678 | -129.99627 | 35984 ft | 440 kts | 252° |
| 2026-04-10 01:29 | 35.50428 | -130.06613 | 35983 ft | 440 kts | 252° |
| 2026-04-10 01:30 | 35.48173 | -130.13594 | 35990 ft | 440 kts | 252° |
| 2026-04-10 01:30 | 35.45943 | -130.20482 | 35992 ft | 439 kts | 252° |
| 2026-04-10 01:31 | 35.43686 | -130.27440 | 35991 ft | 439 kts | 252° |
| 2026-04-10 01:31 | 35.41452 | -130.34311 | 35997 ft | 439 kts | 252° |
| 2026-04-10 01:32 | 35.39206 | -130.41203 | 36000 ft | 438 kts | 252° |
| 2026-04-10 01:32 | 35.36951 | -130.48103 | 35999 ft | 438 kts | 252° |
| 2026-04-10 01:33 | 35.34688 | -130.55016 | 36004 ft | 437 kts | 252° |
| 2026-04-10 01:33 | 35.32419 | -130.61932 | 36005 ft | 437 kts | 252° |
| 2026-04-10 01:34 | 35.30173 | -130.68758 | 36011 ft | 436 kts | 252° |
| 2026-04-10 01:34 | 35.27904 | -130.75641 | 36011 ft | 436 kts | 252° |
| 2026-04-10 01:35 | 35.25657 | -130.82443 | 36015 ft | 436 kts | 252° |
| 2026-04-10 01:35 | 35.23383 | -130.89308 | 36017 ft | 435 kts | 252° |
| 2026-04-10 01:36 | 35.21117 | -130.96136 | 36021 ft | 435 kts | 252° |
| 2026-04-10 01:36 | 35.18866 | -131.02901 | 36021 ft | 435 kts | 252° |
| 2026-04-10 01:37 | 35.16571 | -131.09787 | 36025 ft | 434 kts | 252° |
| 2026-04-10 01:37 | 35.14326 | -131.16505 | 36028 ft | 434 kts | 252° |
| 2026-04-10 01:38 | 35.12039 | -131.23333 | 36030 ft | 434 kts | 252° |
| 2026-04-10 01:38 | 35.09775 | -131.30080 | 36032 ft | 434 kts | 253° |
| 2026-04-10 01:39 | 35.07470 | -131.36933 | 36033 ft | 433 kts | 253° |
| 2026-04-10 01:39 | 35.05178 | -131.43731 | 36040 ft | 433 kts | 253° |
| 2026-04-10 01:40 | 35.02927 | -131.50391 | 36042 ft | 432 kts | 253° |
| 2026-04-10 01:40 | 35.00632 | -131.57170 | 36044 ft | 432 kts | 253° |
| 2026-04-10 01:41 | 34.98360 | -131.63863 | 36054 ft | 432 kts | 253° |
| 2026-04-10 01:41 | 34.96061 | -131.70626 | 36054 ft | 431 kts | 253° |
| 2026-04-10 01:42 | 34.93783 | -131.77307 | 36050 ft | 431 kts | 253° |
| 2026-04-10 01:42 | 34.91484 | -131.84039 | 36056 ft | 431 kts | 253° |
| 2026-04-10 01:43 | 34.89178 | -131.90774 | 36060 ft | 430 kts | 253° |
| 2026-04-10 01:43 | 34.86899 | -131.97419 | 36059 ft | 430 kts | 253° |
| 2026-04-10 01:44 | 34.84591 | -132.04131 | 36061 ft | 429 kts | 253° |
| 2026-04-10 01:44 | 34.82312 | -132.10746 | 36063 ft | 429 kts | 253° |
| 2026-04-10 01:45 | 34.80004 | -132.17432 | 36069 ft | 429 kts | 253° |
| 2026-04-10 01:45 | 34.77693 | -132.24112 | 36070 ft | 428 kts | 253° |
| 2026-04-10 01:46 | 34.75401 | -132.30720 | 36069 ft | 428 kts | 253° |
| 2026-04-10 01:46 | 34.73087 | -132.37379 | 36073 ft | 428 kts | 253° |
| 2026-04-10 01:47 | 34.70791 | -132.43973 | 36078 ft | 428 kts | 253° |
| 2026-04-10 01:47 | 34.68469 | -132.50625 | 36080 ft | 427 kts | 253° |
| 2026-04-10 01:48 | 34.66173 | -132.57192 | 36079 ft | 427 kts | 253° |
| 2026-04-10 01:48 | 34.63849 | -132.63825 | 36080 ft | 427 kts | 253° |
| 2026-04-10 01:49 | 34.61520 | -132.70456 | 36085 ft | 427 kts | 253° |
| 2026-04-10 01:49 | 34.59217 | -132.77002 | 36090 ft | 426 kts | 253° |
| 2026-04-10 01:50 | 34.56884 | -132.83618 | 36089 ft | 426 kts | 253° |
| 2026-04-10 01:50 | 34.54572 | -132.90159 | 36096 ft | 426 kts | 253° |
| 2026-04-10 01:51 | 34.52236 | -132.96755 | 36096 ft | 426 kts | 253° |
| 2026-04-10 01:51 | 34.49897 | -133.03348 | 36103 ft | 426 kts | 253° |
| 2026-04-10 01:52 | 34.47579 | -133.09868 | 36097 ft | 425 kts | 253° |
| 2026-04-10 01:52 | 34.45233 | -133.16454 | 36100 ft | 425 kts | 253° |
| 2026-04-10 01:53 | 34.42911 | -133.22956 | 36099 ft | 425 kts | 253° |
| 2026-04-10 01:53 | 34.40564 | -133.29515 | 36103 ft | 425 kts | 253° |
| 2026-04-10 01:54 | 34.38237 | -133.36007 | 36107 ft | 425 kts | 253° |
| 2026-04-10 01:54 | 34.35881 | -133.42566 | 36106 ft | 425 kts | 253° |
| 2026-04-10 01:55 | 34.33536 | -133.49082 | 36109 ft | 425 kts | 253° |
| 2026-04-10 01:55 | 34.31196 | -133.55568 | 36110 ft | 425 kts | 253° |
| 2026-04-10 01:56 | 34.28814 | -133.62159 | 36111 ft | 425 kts | 253° |
| 2026-04-10 01:56 | 34.26483 | -133.68598 | 36113 ft | 425 kts | 253° |
| 2026-04-10 01:57 | 34.24111 | -133.75141 | 36116 ft | 425 kts | 253° |
| 2026-04-10 01:57 | 34.21739 | -133.81669 | 36118 ft | 425 kts | 253° |
| 2026-04-10 01:58 | 34.19382 | -133.88143 | 36118 ft | 425 kts | 253° |
| 2026-04-10 01:58 | 34.16999 | -133.94677 | 36120 ft | 425 kts | 253° |
| 2026-04-10 01:59 | 34.14644 | -134.01119 | 36120 ft | 425 kts | 253° |
| 2026-04-10 01:59 | 34.12253 | -134.07650 | 36124 ft | 425 kts | 253° |
| 2026-04-10 02:00 | 34.09892 | -134.14086 | 36125 ft | 425 kts | 253° |
| 2026-04-10 02:00 | 34.07491 | -134.20616 | 36128 ft | 426 kts | 253° |
| 2026-04-10 02:01 | 34.05092 | -134.27129 | 36126 ft | 426 kts | 253° |
| 2026-04-10 02:01 | 34.02712 | -134.33574 | 36131 ft | 426 kts | 253° |
| 2026-04-10 02:02 | 34.00283 | -134.40088 | 36128 ft | 426 kts | 253° |
| 2026-04-10 02:02 | 33.98287 | -134.45470 | 36130 ft | 426 kts | 253° |
| 2026-04-10 02:03 | 33.95868 | -134.51987 | 36141 ft | 426 kts | 253° |
| 2026-04-10 02:03 | 33.93444 | -134.58506 | 36141 ft | 427 kts | 253° |
| 2026-04-10 02:04 | 33.91047 | -134.64937 | 36134 ft | 427 kts | 253° |
| 2026-04-10 02:04 | 33.88629 | -134.71415 | 36136 ft | 427 kts | 253° |
| 2026-04-10 02:05 | 33.86208 | -134.77887 | 36140 ft | 427 kts | 252° |
| 2026-04-10 02:05 | 33.83766 | -134.84402 | 36142 ft | 428 kts | 252° |
| 2026-04-10 02:06 | 33.81348 | -134.90840 | 36139 ft | 428 kts | 252° |
| 2026-04-10 02:06 | 33.78894 | -134.97363 | 36139 ft | 429 kts | 252° |
| 2026-04-10 02:07 | 33.76450 | -135.03844 | 36143 ft | 429 kts | 252° |
| 2026-04-10 02:07 | 33.74022 | -135.10272 | 36142 ft | 429 kts | 252° |
| 2026-04-10 02:08 | 33.71546 | -135.16814 | 36146 ft | 430 kts | 252° |
| 2026-04-10 02:08 | 33.69103 | -135.23255 | 36142 ft | 430 kts | 252° |
| 2026-04-10 02:09 | 33.66619 | -135.29792 | 36144 ft | 430 kts | 252° |
| 2026-04-10 02:09 | 33.64133 | -135.36321 | 36144 ft | 431 kts | 252° |
| 2026-04-10 02:10 | 33.61674 | -135.42768 | 36147 ft | 431 kts | 252° |
| 2026-04-10 02:10 | 33.59179 | -135.49297 | 36149 ft | 431 kts | 252° |
| 2026-04-10 02:11 | 33.56708 | -135.55749 | 36149 ft | 431 kts | 252° |
| 2026-04-10 02:11 | 33.54202 | -135.62279 | 36151 ft | 431 kts | 252° |
| 2026-04-10 02:12 | 33.51762 | -135.68626 | 36149 ft | 432 kts | 252° |
| 2026-04-10 02:12 | 33.49208 | -135.75256 | 36158 ft | 432 kts | 252° |
| 2026-04-10 02:13 | 33.46687 | -135.81789 | 36157 ft | 432 kts | 252° |
| 2026-04-10 02:13 | 33.44199 | -135.88225 | 36161 ft | 432 kts | 252° |
| 2026-04-10 02:14 | 33.41672 | -135.94747 | 36160 ft | 432 kts | 252° |
| 2026-04-10 02:14 | 33.39169 | -136.01194 | 36163 ft | 432 kts | 251° |
| 2026-04-10 02:15 | 33.36637 | -136.07706 | 36169 ft | 432 kts | 251° |
| 2026-04-10 02:15 | 33.34095 | -136.14229 | 36171 ft | 433 kts | 251° |
| 2026-04-10 02:16 | 33.31584 | -136.20661 | 36175 ft | 432 kts | 251° |
| 2026-04-10 02:16 | 33.29036 | -136.27175 | 36171 ft | 433 kts | 251° |
| 2026-04-10 02:17 | 33.25243 | -136.36849 | 36170 ft | 433 kts | 251° |
| 2026-04-10 02:17 | 33.22684 | -136.43361 | 36175 ft | 433 kts | 251° |
| 2026-04-10 02:18 | 33.20159 | -136.49773 | 36176 ft | 433 kts | 251° |
| 2026-04-10 02:18 | 33.17594 | -136.56275 | 36177 ft | 433 kts | 251° |
| 2026-04-10 02:19 | 33.15070 | -136.62660 | 36175 ft | 433 kts | 251° |
| 2026-04-10 02:19 | 33.12497 | -136.69158 | 36180 ft | 433 kts | 251° |
| 2026-04-10 02:20 | 33.09924 | -136.75644 | 36182 ft | 433 kts | 251° |
| 2026-04-10 02:20 | 33.07375 | -136.82057 | 36186 ft | 433 kts | 251° |
| 2026-04-10 02:21 | 33.04795 | -136.88535 | 36184 ft | 433 kts | 251° |
| 2026-04-10 02:21 | 33.02241 | -136.94936 | 36190 ft | 433 kts | 252° |
| 2026-04-10 02:22 | 32.99650 | -137.01418 | 36186 ft | 433 kts | 252° |
| 2026-04-10 02:22 | 32.97043 | -137.07928 | 36185 ft | 433 kts | 252° |
| 2026-04-10 02:23 | 32.94480 | -137.14316 | 36191 ft | 433 kts | 252° |
| 2026-04-10 02:23 | 32.91897 | -137.20742 | 36187 ft | 433 kts | 252° |
| 2026-04-10 02:24 | 32.89330 | -137.27116 | 36187 ft | 432 kts | 252° |
| 2026-04-10 02:24 | 32.86725 | -137.33571 | 36192 ft | 432 kts | 252° |
| 2026-04-10 02:25 | 32.84152 | -137.39938 | 36192 ft | 432 kts | 252° |
| 2026-04-10 02:25 | 32.81546 | -137.46374 | 36196 ft | 432 kts | 252° |
| 2026-04-10 02:26 | 32.78936 | -137.52806 | 36188 ft | 432 kts | 252° |
| 2026-04-10 02:26 | 32.76358 | -137.59147 | 36191 ft | 432 kts | 252° |
| 2026-04-10 02:27 | 32.73747 | -137.65561 | 36196 ft | 431 kts | 252° |
| 2026-04-10 02:27 | 32.71157 | -137.71909 | 36207 ft | 431 kts | 252° |
| 2026-04-10 02:28 | 32.68541 | -137.78309 | 36194 ft | 431 kts | 252° |
| 2026-04-10 02:28 | 32.65963 | -137.84608 | 36196 ft | 431 kts | 252° |
| 2026-04-10 02:29 | 32.63328 | -137.91031 | 36198 ft | 431 kts | 252° |
| 2026-04-10 02:29 | 32.60705 | -137.97414 | 36197 ft | 430 kts | 252° |
| 2026-04-10 02:30 | 32.58108 | -138.03723 | 36196 ft | 430 kts | 253° |
| 2026-04-10 02:30 | 32.55481 | -138.10093 | 36200 ft | 430 kts | 253° |
| 2026-04-10 02:31 | 32.52879 | -138.16391 | 36200 ft | 430 kts | 253° |
| 2026-04-10 02:31 | 32.50245 | -138.22753 | 36204 ft | 430 kts | 253° |
| 2026-04-10 02:32 | 32.47615 | -138.29097 | 36202 ft | 430 kts | 253° |
| 2026-04-10 02:32 | 32.45003 | -138.35386 | 36205 ft | 430 kts | 253° |
| 2026-04-10 02:33 | 32.42363 | -138.41730 | 36199 ft | 430 kts | 253° |
| 2026-04-10 02:33 | 32.39752 | -138.47994 | 36209 ft | 429 kts | 253° |
| 2026-04-10 02:34 | 32.37105 | -138.54332 | 36207 ft | 429 kts | 253° |
| 2026-04-10 02:34 | 32.34485 | -138.60595 | 36208 ft | 429 kts | 253° |
| 2026-04-10 02:35 | 32.31836 | -138.66915 | 36207 ft | 429 kts | 253° |
| 2026-04-10 02:35 | 32.29187 | -138.73225 | 36206 ft | 429 kts | 253° |
| 2026-04-10 02:36 | 32.26580 | -138.79426 | 36207 ft | 429 kts | 253° |
| 2026-04-10 02:36 | 32.23927 | -138.85724 | 36210 ft | 428 kts | 252° |
| 2026-04-10 02:37 | 32.21301 | -138.91947 | 36211 ft | 428 kts | 252° |
| 2026-04-10 02:37 | 32.18642 | -138.98234 | 36213 ft | 428 kts | 252° |
| 2026-04-10 02:38 | 32.15987 | -139.04504 | 36212 ft | 427 kts | 252° |
| 2026-04-10 02:38 | 32.13360 | -139.10696 | 36213 ft | 426 kts | 253° |
| 2026-04-10 02:39 | 32.10702 | -139.16951 | 36212 ft | 426 kts | 253° |
| 2026-04-10 02:39 | 32.08078 | -139.23115 | 36214 ft | 425 kts | 253° |
| 2026-04-10 02:40 | 32.05423 | -139.29340 | 36215 ft | 425 kts | 253° |
| 2026-04-10 02:40 | 32.02795 | -139.35491 | 36217 ft | 424 kts | 253° |
| 2026-04-10 02:41 | 32.00139 | -139.41698 | 36216 ft | 424 kts | 253° |
| 2026-04-10 02:41 | 31.97486 | -139.47890 | 36212 ft | 423 kts | 253° |
| 2026-04-10 02:42 | 31.94856 | -139.54014 | 36218 ft | 423 kts | 253° |
| 2026-04-10 02:42 | 31.92205 | -139.60178 | 36217 ft | 422 kts | 254° |
| 2026-04-10 02:43 | 31.89577 | -139.66277 | 36217 ft | 422 kts | 254° |
| 2026-04-10 02:43 | 31.86925 | -139.72422 | 36218 ft | 421 kts | 254° |
| 2026-04-10 02:44 | 31.84270 | -139.78565 | 36219 ft | 421 kts | 255° |
| 2026-04-10 02:44 | 31.81641 | -139.84636 | 36218 ft | 421 kts | 255° |
| 2026-04-10 02:45 | 31.78985 | -139.90758 | 36222 ft | 420 kts | 255° |
| 2026-04-10 02:45 | 31.76360 | -139.96800 | 36227 ft | 420 kts | 255° |
| 2026-04-10 02:46 | 31.73721 | -140.02865 | 36224 ft | 419 kts | 255° |
| 2026-04-10 02:46 | 31.71496 | -140.07970 | 36220 ft | 419 kts | 255° |
| 2026-04-10 02:47 | 31.68435 | -140.14980 | 36214 ft | 419 kts | 255° |
| 2026-04-10 02:47 | 31.65779 | -140.21054 | 36221 ft | 418 kts | 255° |
| 2026-04-10 02:48 | 31.63582 | -140.26069 | 36214 ft | 418 kts | 255° |
| 2026-04-10 02:48 | 31.60926 | -140.32124 | 36221 ft | 417 kts | 255° |
| 2026-04-10 02:49 | 31.58296 | -140.38109 | 36223 ft | 417 kts | 255° |
| 2026-04-10 02:49 | 31.55657 | -140.44107 | 36223 ft | 416 kts | 255° |
| 2026-04-10 02:50 | 31.52983 | -140.50172 | 36224 ft | 416 kts | 255° |
| 2026-04-10 02:50 | 31.50368 | -140.56095 | 36224 ft | 416 kts | 255° |
| 2026-04-10 02:51 | 31.47711 | -140.62103 | 36224 ft | 415 kts | 255° |
| 2026-04-10 02:51 | 31.45082 | -140.68041 | 36229 ft | 415 kts | 255° |
| 2026-04-10 02:52 | 31.42424 | -140.74034 | 36228 ft | 415 kts | 255° |
| 2026-04-10 02:52 | 31.39765 | -140.80021 | 36223 ft | 415 kts | 255° |
| 2026-04-10 02:53 | 31.37131 | -140.85944 | 36226 ft | 414 kts | 255° |
| 2026-04-10 02:53 | 31.34472 | -140.91911 | 36228 ft | 414 kts | 255° |
| 2026-04-10 02:54 | 31.31837 | -140.97817 | 36228 ft | 413 kts | 255° |
| 2026-04-10 02:54 | 31.29176 | -141.03770 | 36229 ft | 413 kts | 255° |
| 2026-04-10 02:55 | 31.26544 | -141.09651 | 36229 ft | 413 kts | 255° |
| 2026-04-10 02:55 | 31.23881 | -141.15590 | 36263 ft | 412 kts | 255° |
| 2026-04-10 02:56 | 31.22551 | -141.18555 | 36380 ft | 412 kts | 255° |
| 2026-04-10 02:56 | 31.21218 | -141.21521 | 36492 ft | 412 kts | 255° |
| 2026-04-10 02:56 | 31.19918 | -141.24412 | 36610 ft | 411 kts | 255° |
| 2026-04-10 02:56 | 31.18591 | -141.27362 | 36717 ft | 410 kts | 255° |
| 2026-04-10 02:57 | 31.17253 | -141.30304 | 36835 ft | 410 kts | 255° |
| 2026-04-10 02:57 | 31.15919 | -141.33245 | 36938 ft | 409 kts | 255° |
| 2026-04-10 02:57 | 31.14594 | -141.36173 | 37056 ft | 408 kts | 255° |
| 2026-04-10 02:57 | 31.13304 | -141.39025 | 37161 ft | 407 kts | 255° |
| 2026-04-10 02:58 | 31.11981 | -141.41948 | 37271 ft | 406 kts | 255° |
| 2026-04-10 02:58 | 31.10665 | -141.44852 | 37375 ft | 405 kts | 255° |
| 2026-04-10 02:58 | 31.09345 | -141.47764 | 37500 ft | 404 kts | 255° |
| 2026-04-10 02:58 | 31.08062 | -141.50593 | 37612 ft | 403 kts | 255° |
| 2026-04-10 02:59 | 31.06752 | -141.53480 | 37727 ft | 402 kts | 255° |
| 2026-04-10 02:59 | 31.05442 | -141.56363 | 37841 ft | 402 kts | 255° |
| 2026-04-10 02:59 | 31.04136 | -141.59236 | 37963 ft | 401 kts | 255° |
| 2026-04-10 03:00 | 31.01558 | -141.64900 | 38190 ft | 399 kts | 255° |
| 2026-04-10 03:00 | 30.98955 | -141.70611 | 38223 ft | 398 kts | 254° |
| 2026-04-10 03:01 | 30.96357 | -141.76301 | 38230 ft | 398 kts | 254° |
| 2026-04-10 03:01 | 30.93780 | -141.81937 | 38224 ft | 398 kts | 254° |
| 2026-04-10 03:02 | 30.91174 | -141.87629 | 38226 ft | 399 kts | 254° |
| 2026-04-10 03:02 | 30.88593 | -141.93257 | 38224 ft | 398 kts | 254° |
| 2026-04-10 03:03 | 30.85979 | -141.98950 | 38227 ft | 398 kts | 254° |
| 2026-04-10 03:03 | 30.83367 | -142.04628 | 38229 ft | 398 kts | 254° |
| 2026-04-10 03:04 | 30.80800 | -142.10201 | 38230 ft | 398 kts | 254° |
| 2026-04-10 03:04 | 30.78193 | -142.15852 | 38228 ft | 395 kts | 254° |
| 2026-04-10 03:05 | 30.75615 | -142.21433 | 38227 ft | 394 kts | 254° |
| 2026-04-10 03:05 | 30.73030 | -142.27018 | 38229 ft | 392 kts | 254° |
| 2026-04-10 03:06 | 30.70494 | -142.32493 | 38229 ft | 391 kts | 254° |
| 2026-04-10 03:06 | 30.67912 | -142.38057 | 38232 ft | 390 kts | 254° |
| 2026-04-10 03:07 | 30.65340 | -142.43594 | 38228 ft | 389 kts | 254° |
| 2026-04-10 03:07 | 30.62781 | -142.49092 | 38228 ft | 389 kts | 254° |
| 2026-04-10 03:08 | 30.60204 | -142.54623 | 38239 ft | 389 kts | 254° |
| 2026-04-10 03:08 | 30.56362 | -142.62850 | 38224 ft | 390 kts | 253° |
| 2026-04-10 03:09 | 30.53798 | -142.68333 | 38225 ft | 390 kts | 253° |
| 2026-04-10 03:09 | 30.51231 | -142.73814 | 38229 ft | 390 kts | 253° |
| 2026-04-10 03:10 | 30.48642 | -142.79336 | 38231 ft | 390 kts | 253° |
| 2026-04-10 03:10 | 30.46070 | -142.84812 | 38231 ft | 391 kts | 253° |
| 2026-04-10 03:11 | 30.43469 | -142.90340 | 38226 ft | 391 kts | 253° |
| 2026-04-10 03:11 | 30.40868 | -142.95863 | 38231 ft | 391 kts | 253° |
| 2026-04-10 03:12 | 30.38292 | -143.01324 | 38227 ft | 391 kts | 253° |
| 2026-04-10 03:12 | 30.35681 | -143.06851 | 38225 ft | 391 kts | 253° |
| 2026-04-10 03:13 | 30.33098 | -143.12313 | 38230 ft | 391 kts | 253° |
| 2026-04-10 03:13 | 30.30486 | -143.17827 | 38234 ft | 391 kts | 252° |
| 2026-04-10 03:14 | 30.27866 | -143.23348 | 38228 ft | 391 kts | 252° |
| 2026-04-10 03:14 | 30.25276 | -143.28800 | 38229 ft | 391 kts | 252° |
| 2026-04-10 03:15 | 30.22650 | -143.34322 | 38225 ft | 391 kts | 252° |
| 2026-04-10 03:15 | 30.20054 | -143.39770 | 38224 ft | 392 kts | 252° |
| 2026-04-10 03:16 | 30.17427 | -143.45278 | 38223 ft | 392 kts | 252° |
| 2026-04-10 03:16 | 30.14823 | -143.50728 | 38223 ft | 392 kts | 252° |
| 2026-04-10 03:17 | 30.12184 | -143.56244 | 38223 ft | 392 kts | 252° |
| 2026-04-10 03:17 | 30.09545 | -143.61753 | 38226 ft | 392 kts | 252° |
| 2026-04-10 03:18 | 30.06930 | -143.67205 | 38225 ft | 392 kts | 251° |
| 2026-04-10 03:18 | 30.04286 | -143.72709 | 38223 ft | 392 kts | 251° |
| 2026-04-10 03:19 | 30.01669 | -143.78149 | 38223 ft | 392 kts | 251° |
| 2026-04-10 03:19 | 29.99021 | -143.83646 | 38225 ft | 392 kts | 251° |
| 2026-04-10 03:20 | 29.96376 | -143.89129 | 38220 ft | 391 kts | 251° |
| 2026-04-10 03:20 | 29.93758 | -143.94548 | 38220 ft | 391 kts | 251° |
| 2026-04-10 03:21 | 29.91110 | -144.00021 | 38219 ft | 391 kts | 251° |
| 2026-04-10 03:21 | 29.88510 | -144.05390 | 38221 ft | 390 kts | 251° |
| 2026-04-10 03:22 | 29.85849 | -144.10875 | 38220 ft | 390 kts | 251° |
| 2026-04-10 03:22 | 29.83247 | -144.16232 | 38217 ft | 389 kts | 250° |
| 2026-04-10 03:23 | 29.80585 | -144.21705 | 38219 ft | 389 kts | 250° |
| 2026-04-10 03:23 | 29.77959 | -144.27095 | 38226 ft | 388 kts | 250° |
| 2026-04-10 03:24 | 29.75343 | -144.32458 | 38220 ft | 388 kts | 250° |
| 2026-04-10 03:24 | 29.72701 | -144.37868 | 38219 ft | 388 kts | 250° |
| 2026-04-10 03:25 | 29.70089 | -144.43210 | 38219 ft | 387 kts | 250° |
| 2026-04-10 03:25 | 29.67445 | -144.48609 | 38222 ft | 387 kts | 250° |
| 2026-04-10 03:26 | 29.64801 | -144.54002 | 38215 ft | 387 kts | 250° |
| 2026-04-10 03:26 | 29.62186 | -144.59327 | 38214 ft | 387 kts | 250° |
| 2026-04-10 03:27 | 29.59539 | -144.64710 | 38219 ft | 387 kts | 250° |
| 2026-04-10 03:27 | 29.56921 | -144.70028 | 38215 ft | 387 kts | 250° |
| 2026-04-10 03:28 | 29.54271 | -144.75403 | 38217 ft | 387 kts | 249° |
| 2026-04-10 03:28 | 29.51647 | -144.80718 | 38217 ft | 386 kts | 249° |
| 2026-04-10 03:29 | 29.48995 | -144.86084 | 38214 ft | 387 kts | 249° |
| 2026-04-10 03:29 | 29.46337 | -144.91453 | 38213 ft | 387 kts | 249° |
| 2026-04-10 03:30 | 29.43712 | -144.96749 | 38212 ft | 387 kts | 249° |
| 2026-04-10 03:30 | 29.41052 | -145.02110 | 38216 ft | 387 kts | 249° |
| 2026-04-10 03:31 | 29.38417 | -145.07412 | 38213 ft | 387 kts | 249° |
| 2026-04-10 03:31 | 29.36204 | -145.11858 | 38214 ft | 387 kts | 249° |
| 2026-04-10 03:32 | 29.33538 | -145.17210 | 38212 ft | 387 kts | 249° |
| 2026-04-10 03:32 | 29.30466 | -145.23369 | 38214 ft | 387 kts | 249° |
| 2026-04-10 03:33 | 29.27796 | -145.28714 | 38211 ft | 386 kts | 248° |
| 2026-04-10 03:33 | 29.25604 | -145.33095 | 38214 ft | 386 kts | 248° |
| 2026-04-10 03:34 | 29.22931 | -145.38433 | 38209 ft | 386 kts | 248° |
| 2026-04-10 03:34 | 29.20284 | -145.43714 | 38211 ft | 386 kts | 248° |
| 2026-04-10 03:35 | 29.17606 | -145.49048 | 38210 ft | 387 kts | 248° |
| 2026-04-10 03:35 | 29.14905 | -145.54420 | 38210 ft | 387 kts | 248° |
| 2026-04-10 03:36 | 29.12250 | -145.59693 | 38205 ft | 387 kts | 248° |
| 2026-04-10 03:36 | 29.09566 | -145.65018 | 38210 ft | 387 kts | 248° |
| 2026-04-10 03:37 | 29.06905 | -145.70290 | 38205 ft | 387 kts | 247° |
| 2026-04-10 03:37 | 29.04230 | -145.75584 | 38202 ft | 387 kts | 247° |
| 2026-04-10 03:38 | 29.01539 | -145.80903 | 38206 ft | 386 kts | 247° |
| 2026-04-10 03:38 | 28.98875 | -145.86160 | 38202 ft | 386 kts | 247° |
| 2026-04-10 03:39 | 28.96183 | -145.91466 | 38195 ft | 386 kts | 247° |
| 2026-04-10 03:39 | 28.93501 | -145.96745 | 38198 ft | 386 kts | 247° |
| 2026-04-10 03:40 | 28.90829 | -146.02000 | 38205 ft | 385 kts | 246° |
| 2026-04-10 03:40 | 28.88167 | -146.07226 | 38198 ft | 385 kts | 246° |
| 2026-04-10 03:41 | 28.85472 | -146.12511 | 38195 ft | 385 kts | 246° |
| 2026-04-10 03:41 | 28.82781 | -146.17783 | 38200 ft | 385 kts | 246° |
| 2026-04-10 03:42 | 28.80110 | -146.23007 | 38190 ft | 385 kts | 246° |
| 2026-04-10 03:42 | 28.77417 | -146.28267 | 38202 ft | 385 kts | 246° |
| 2026-04-10 03:43 | 28.74748 | -146.33475 | 38195 ft | 384 kts | 246° |
| 2026-04-10 03:43 | 28.72049 | -146.38734 | 38192 ft | 385 kts | 246° |
| 2026-04-10 03:44 | 28.69346 | -146.43995 | 38193 ft | 385 kts | 246° |
| 2026-04-10 03:44 | 28.66672 | -146.49193 | 38193 ft | 385 kts | 246° |
| 2026-04-10 03:45 | 28.63962 | -146.54452 | 38189 ft | 385 kts | 246° |
| 2026-04-10 03:45 | 28.61284 | -146.59646 | 38189 ft | 385 kts | 246° |
| 2026-04-10 03:46 | 28.58571 | -146.64899 | 38190 ft | 385 kts | 246° |
| 2026-04-10 03:46 | 28.55885 | -146.70094 | 38191 ft | 385 kts | 246° |
| 2026-04-10 03:47 | 28.53168 | -146.75340 | 38191 ft | 385 kts | 245° |
| 2026-04-10 03:47 | 28.50451 | -146.80582 | 38184 ft | 385 kts | 245° |
| 2026-04-10 03:48 | 28.47758 | -146.85771 | 38189 ft | 385 kts | 245° |
| 2026-04-10 03:48 | 28.45034 | -146.91014 | 38186 ft | 385 kts | 245° |
| 2026-04-10 03:49 | 28.42334 | -146.96202 | 38187 ft | 385 kts | 245° |
| 2026-04-10 03:49 | 28.39604 | -147.01443 | 38187 ft | 386 kts | 245° |
| 2026-04-10 03:50 | 28.36865 | -147.06692 | 38187 ft | 386 kts | 245° |
| 2026-04-10 03:50 | 28.34161 | -147.11871 | 38186 ft | 387 kts | 245° |
| 2026-04-10 03:51 | 28.31416 | -147.17120 | 38182 ft | 387 kts | 245° |
| 2026-04-10 03:51 | 28.28691 | -147.22324 | 38184 ft | 388 kts | 245° |
| 2026-04-10 03:52 | 28.25928 | -147.27595 | 38180 ft | 388 kts | 245° |
| 2026-04-10 03:52 | 28.23193 | -147.32807 | 38179 ft | 389 kts | 245° |
| 2026-04-10 03:53 | 28.20424 | -147.38077 | 38180 ft | 390 kts | 245° |
| 2026-04-10 03:53 | 28.17645 | -147.43361 | 38176 ft | 390 kts | 244° |
| 2026-04-10 03:54 | 28.14897 | -147.48579 | 38179 ft | 390 kts | 244° |
| 2026-04-10 03:54 | 28.12116 | -147.53854 | 38179 ft | 391 kts | 244° |
| 2026-04-10 03:55 | 28.09361 | -147.59074 | 38181 ft | 391 kts | 244° |
| 2026-04-10 03:55 | 28.06567 | -147.64360 | 38174 ft | 391 kts | 244° |
| 2026-04-10 03:56 | 28.03772 | -147.69641 | 38182 ft | 391 kts | 244° |
| 2026-04-10 03:56 | 28.01008 | -147.74860 | 38180 ft | 391 kts | 244° |
| 2026-04-10 03:57 | 27.98221 | -147.80112 | 38180 ft | 391 kts | 244° |
| 2026-04-10 03:57 | 27.95450 | -147.85330 | 38180 ft | 392 kts | 244° |
| 2026-04-10 03:58 | 27.92642 | -147.90611 | 38182 ft | 392 kts | 244° |
| 2026-04-10 03:58 | 27.89862 | -147.95832 | 38182 ft | 392 kts | 243° |
| 2026-04-10 03:59 | 27.87040 | -148.01093 | 38176 ft | 391 kts | 243° |
| 2026-04-10 03:59 | 27.84225 | -148.06357 | 38178 ft | 391 kts | 243° |
| 2026-04-10 04:00 | 27.81440 | -148.11564 | 38174 ft | 391 kts | 243° |
| 2026-04-10 04:00 | 27.78625 | -148.16821 | 38174 ft | 391 kts | 243° |
| 2026-04-10 04:01 | 27.75838 | -148.22019 | 38173 ft | 391 kts | 243° |
| 2026-04-10 04:01 | 27.73016 | -148.27275 | 38172 ft | 391 kts | 243° |
| 2026-04-10 04:02 | 27.70194 | -148.32526 | 38171 ft | 391 kts | 243° |
| 2026-04-10 04:02 | 27.67407 | -148.37704 | 38167 ft | 391 kts | 243° |
| 2026-04-10 04:03 | 27.64583 | -148.42946 | 38167 ft | 391 kts | 243° |
| 2026-04-10 04:03 | 27.61789 | -148.48125 | 38166 ft | 391 kts | 243° |
| 2026-04-10 04:04 | 27.58963 | -148.53358 | 38166 ft | 391 kts | 243° |
| 2026-04-10 04:04 | 27.56164 | -148.58534 | 38172 ft | 391 kts | 243° |
| 2026-04-10 04:05 | 27.53333 | -148.63762 | 38184 ft | 391 kts | 243° |
| 2026-04-10 04:05 | 27.50500 | -148.68988 | 38170 ft | 391 kts | 243° |
| 2026-04-10 04:06 | 27.47694 | -148.74160 | 38174 ft | 391 kts | 243° |
| 2026-04-10 04:06 | 27.44857 | -148.79381 | 38165 ft | 391 kts | 243° |
| 2026-04-10 04:07 | 27.42051 | -148.84540 | 38171 ft | 391 kts | 243° |
| 2026-04-10 04:07 | 27.39210 | -148.89755 | 38166 ft | 391 kts | 243° |
| 2026-04-10 04:08 | 27.36398 | -148.94912 | 38170 ft | 391 kts | 243° |
| 2026-04-10 04:08 | 27.33554 | -149.00121 | 38167 ft | 391 kts | 243° |
| 2026-04-10 04:09 | 27.30708 | -149.05327 | 38169 ft | 391 kts | 243° |
| 2026-04-10 04:09 | 27.27894 | -149.10469 | 38163 ft | 391 kts | 243° |
| 2026-04-10 04:10 | 27.25061 | -149.15641 | 38170 ft | 391 kts | 243° |
| 2026-04-10 04:10 | 27.22226 | -149.20810 | 38159 ft | 390 kts | 243° |
| 2026-04-10 04:11 | 27.19396 | -149.25963 | 38165 ft | 390 kts | 243° |
| 2026-04-10 04:11 | 27.16547 | -149.31143 | 38156 ft | 390 kts | 243° |
| 2026-04-10 04:12 | 27.13733 | -149.36255 | 38158 ft | 390 kts | 243° |
| 2026-04-10 04:12 | 27.10885 | -149.41424 | 38157 ft | 389 kts | 243° |
| 2026-04-10 04:13 | 27.08068 | -149.46528 | 38162 ft | 389 kts | 243° |
| 2026-04-10 04:13 | 27.05222 | -149.51680 | 38158 ft | 388 kts | 243° |
| 2026-04-10 04:14 | 27.02407 | -149.56770 | 38162 ft | 388 kts | 243° |
| 2026-04-10 04:14 | 26.99565 | -149.61904 | 38153 ft | 387 kts | 243° |
| 2026-04-10 04:15 | 26.96720 | -149.67035 | 38156 ft | 387 kts | 243° |
| 2026-04-10 04:15 | 26.93914 | -149.72092 | 38152 ft | 386 kts | 243° |
| 2026-04-10 04:16 | 26.89654 | -149.79757 | 38152 ft | 386 kts | 243° |
| 2026-04-10 04:17 | 26.86849 | -149.84797 | 38151 ft | 386 kts | 243° |
| 2026-04-10 04:17 | 26.84011 | -149.89892 | 38149 ft | 385 kts | 243° |
| 2026-04-10 04:18 | 26.81661 | -149.94105 | 38146 ft | 385 kts | 243° |
| 2026-04-10 04:18 | 26.78846 | -149.99146 | 38153 ft | 384 kts | 243° |
| 2026-04-10 04:19 | 26.76018 | -150.04206 | 38145 ft | 384 kts | 243° |
| 2026-04-10 04:19 | 26.73216 | -150.09211 | 38148 ft | 383 kts | 243° |
| 2026-04-10 04:20 | 26.70391 | -150.14255 | 38145 ft | 382 kts | 243° |
| 2026-04-10 04:20 | 26.67595 | -150.19238 | 38147 ft | 382 kts | 243° |
| 2026-04-10 04:21 | 26.64774 | -150.24263 | 38148 ft | 381 kts | 243° |
| 2026-04-10 04:21 | 26.61982 | -150.29230 | 38145 ft | 381 kts | 243° |
| 2026-04-10 04:22 | 26.59166 | -150.34233 | 38139 ft | 380 kts | 242° |
| 2026-04-10 04:22 | 26.56350 | -150.39232 | 38143 ft | 379 kts | 242° |
| 2026-04-10 04:23 | 26.53570 | -150.44160 | 38141 ft | 379 kts | 242° |
| 2026-04-10 04:23 | 26.50762 | -150.49135 | 38142 ft | 378 kts | 242° |
| 2026-04-10 04:24 | 26.47997 | -150.54028 | 38137 ft | 377 kts | 242° |
| 2026-04-10 04:24 | 26.45197 | -150.58975 | 38138 ft | 377 kts | 242° |
| 2026-04-10 04:25 | 26.42405 | -150.63904 | 38140 ft | 376 kts | 242° |
| 2026-04-10 04:25 | 26.39637 | -150.68785 | 38138 ft | 375 kts | 242° |
| 2026-04-10 04:26 | 26.36847 | -150.73700 | 38131 ft | 375 kts | 242° |
| 2026-04-10 04:26 | 26.34088 | -150.78555 | 38134 ft | 375 kts | 242° |
| 2026-04-10 04:27 | 26.31297 | -150.83460 | 38129 ft | 374 kts | 242° |
| 2026-04-10 04:27 | 26.28539 | -150.88303 | 38133 ft | 374 kts | 242° |
| 2026-04-10 04:28 | 26.25755 | -150.93186 | 38132 ft | 373 kts | 242° |
| 2026-04-10 04:28 | 26.22971 | -150.98063 | 38125 ft | 373 kts | 241° |
| 2026-04-10 04:29 | 26.20220 | -151.02877 | 38123 ft | 372 kts | 241° |
| 2026-04-10 04:29 | 26.17440 | -151.07739 | 38127 ft | 372 kts | 241° |
| 2026-04-10 04:30 | 26.14696 | -151.12531 | 38127 ft | 371 kts | 241° |
| 2026-04-10 04:30 | 26.11923 | -151.17369 | 38125 ft | 370 kts | 241° |
| 2026-04-10 04:31 | 26.09155 | -151.22192 | 38124 ft | 370 kts | 241° |
| 2026-04-10 04:31 | 26.06423 | -151.26951 | 38124 ft | 369 kts | 241° |
| 2026-04-10 04:32 | 26.03663 | -151.31749 | 38118 ft | 368 kts | 241° |
| 2026-04-10 04:32 | 26.00956 | -151.36454 | 38119 ft | 367 kts | 241° |
| 2026-04-10 04:33 | 25.98287 | -151.41085 | 38119 ft | 366 kts | 241° |
| 2026-04-10 04:33 | 25.95564 | -151.45807 | 38118 ft | 366 kts | 241° |
| 2026-04-10 04:34 | 25.92817 | -151.50564 | 38113 ft | 366 kts | 241° |
| 2026-04-10 04:34 | 25.90065 | -151.55327 | 38114 ft | 366 kts | 241° |
| 2026-04-10 04:35 | 25.87350 | -151.60020 | 38112 ft | 366 kts | 241° |
| 2026-04-10 04:35 | 25.84600 | -151.64769 | 38109 ft | 365 kts | 241° |
| 2026-04-10 04:36 | 25.81884 | -151.69454 | 38108 ft | 365 kts | 241° |
| 2026-04-10 04:36 | 25.79140 | -151.74182 | 38107 ft | 364 kts | 240° |
| 2026-04-10 04:37 | 25.76397 | -151.78904 | 38103 ft | 364 kts | 240° |
| 2026-04-10 04:37 | 25.73680 | -151.83576 | 38105 ft | 364 kts | 240° |
| 2026-04-10 04:38 | 25.70931 | -151.88299 | 38104 ft | 364 kts | 240° |
| 2026-04-10 04:38 | 25.68213 | -151.92964 | 38102 ft | 364 kts | 240° |
| 2026-04-10 04:39 | 25.65461 | -151.97683 | 38101 ft | 365 kts | 240° |
| 2026-04-10 04:39 | 25.62732 | -152.02357 | 38100 ft | 365 kts | 240° |
| 2026-04-10 04:40 | 25.59978 | -152.07069 | 38089 ft | 364 kts | 240° |
| 2026-04-10 04:40 | 25.57241 | -152.11749 | 38097 ft | 364 kts | 240° |
| 2026-04-10 04:41 | 25.54503 | -152.16423 | 38093 ft | 363 kts | 240° |
| 2026-04-10 04:41 | 25.51752 | -152.21117 | 38094 ft | 363 kts | 240° |
| 2026-04-10 04:42 | 25.49036 | -152.25746 | 38088 ft | 363 kts | 240° |
| 2026-04-10 04:42 | 25.46296 | -152.30411 | 38087 ft | 364 kts | 240° |
| 2026-04-10 04:43 | 25.43522 | -152.35130 | 38079 ft | 364 kts | 240° |
| 2026-04-10 04:43 | 25.40807 | -152.39743 | 38092 ft | 364 kts | 240° |
| 2026-04-10 04:44 | 25.38042 | -152.44436 | 38077 ft | 364 kts | 239° |
| 2026-04-10 04:44 | 25.35304 | -152.49080 | 38080 ft | 364 kts | 239° |
| 2026-04-10 04:45 | 25.32538 | -152.53764 | 38082 ft | 364 kts | 239° |
| 2026-04-10 04:45 | 25.29807 | -152.58388 | 38078 ft | 364 kts | 239° |
| 2026-04-10 04:46 | 25.27036 | -152.63073 | 38078 ft | 364 kts | 239° |
| 2026-04-10 04:46 | 25.24263 | -152.67757 | 38079 ft | 364 kts | 239° |
| 2026-04-10 04:47 | 25.21523 | -152.72381 | 38072 ft | 364 kts | 239° |
| 2026-04-10 04:47 | 25.18747 | -152.77061 | 38077 ft | 364 kts | 239° |
| 2026-04-10 04:48 | 25.15997 | -152.81693 | 38074 ft | 364 kts | 239° |
| 2026-04-10 04:48 | 25.13220 | -152.86364 | 38072 ft | 364 kts | 239° |
| 2026-04-10 04:49 | 25.10503 | -152.90931 | 38071 ft | 363 kts | 239° |
| 2026-04-10 04:49 | 25.07708 | -152.95626 | 38065 ft | 362 kts | 239° |
| 2026-04-10 04:50 | 25.04934 | -153.00279 | 38062 ft | 363 kts | 239° |
| 2026-04-10 04:50 | 25.02185 | -153.04887 | 38064 ft | 364 kts | 239° |
| 2026-04-10 04:51 | 24.99401 | -153.09548 | 38054 ft | 365 kts | 239° |
| 2026-04-10 04:51 | 24.96642 | -153.14163 | 38065 ft | 365 kts | 239° |
| 2026-04-10 04:52 | 24.93838 | -153.18849 | 38059 ft | 366 kts | 239° |
| 2026-04-10 04:52 | 24.91033 | -153.23532 | 38053 ft | 367 kts | 239° |
| 2026-04-10 04:53 | 24.88252 | -153.28170 | 38060 ft | 368 kts | 239° |
| 2026-04-10 04:53 | 24.85431 | -153.32871 | 38050 ft | 368 kts | 239° |
| 2026-04-10 04:54 | 24.82636 | -153.37523 | 38047 ft | 368 kts | 239° |
| 2026-04-10 04:54 | 24.79815 | -153.42216 | 38039 ft | 367 kts | 239° |
| 2026-04-10 04:55 | 24.77034 | -153.46836 | 38044 ft | 368 kts | 239° |
| 2026-04-10 04:55 | 24.74211 | -153.51520 | 38048 ft | 367 kts | 239° |
| 2026-04-10 04:56 | 24.71388 | -153.56201 | 38052 ft | 367 kts | 239° |
| 2026-04-10 04:56 | 24.68617 | -153.60792 | 38047 ft | 367 kts | 239° |
| 2026-04-10 04:57 | 24.65791 | -153.65470 | 38047 ft | 367 kts | 239° |
| 2026-04-10 04:57 | 24.62991 | -153.70101 | 38045 ft | 368 kts | 239° |
| 2026-04-10 04:58 | 24.60162 | -153.74776 | 38043 ft | 368 kts | 239° |
| 2026-04-10 04:58 | 24.57330 | -153.79451 | 38047 ft | 367 kts | 239° |
| 2026-04-10 04:59 | 24.54529 | -153.84071 | 38046 ft | 367 kts | 239° |
| 2026-04-10 04:59 | 24.51697 | -153.88736 | 38046 ft | 367 kts | 239° |
| 2026-04-10 05:00 | 24.48896 | -153.93348 | 38045 ft | 367 kts | 239° |
| 2026-04-10 05:00 | 24.46059 | -153.98015 | 38046 ft | 367 kts | 239° |
| 2026-04-10 05:01 | 24.43263 | -154.02609 | 38043 ft | 367 kts | 239° |
| 2026-04-10 05:01 | 24.40416 | -154.07282 | 38044 ft | 367 kts | 239° |
| 2026-04-10 05:02 | 24.37579 | -154.11934 | 38041 ft | 367 kts | 239° |
| 2026-04-10 05:02 | 24.34768 | -154.16540 | 38043 ft | 367 kts | 239° |
| 2026-04-10 05:03 | 24.31928 | -154.21189 | 38040 ft | 367 kts | 239° |
| 2026-04-10 05:03 | 24.29421 | -154.24862 | 38029 ft | 370 kts | 229° |
| 2026-04-10 05:04 | 24.25072 | -154.28040 | 38040 ft | 386 kts | 212° |
| 2026-04-10 05:04 | 24.20186 | -154.30488 | 38056 ft | 386 kts | 213° |
| 2026-04-10 05:05 | 24.15405 | -154.32970 | 38035 ft | 385 kts | 213° |
| 2026-04-10 05:05 | 24.10561 | -154.35506 | 38036 ft | 387 kts | 213° |
| 2026-04-10 05:06 | 24.05761 | -154.38022 | 38034 ft | 387 kts | 213° |
| 2026-04-10 05:06 | 24.00905 | -154.40564 | 38030 ft | 387 kts | 213° |
| 2026-04-10 05:07 | 23.96043 | -154.43108 | 38029 ft | 387 kts | 213° |
| 2026-04-10 05:07 | 23.91234 | -154.45622 | 38027 ft | 387 kts | 213° |
| 2026-04-10 05:08 | 23.86373 | -154.48161 | 38026 ft | 387 kts | 213° |
| 2026-04-10 05:08 | 23.81558 | -154.50673 | 38028 ft | 388 kts | 213° |
| 2026-04-10 05:09 | 23.76691 | -154.53211 | 38023 ft | 388 kts | 213° |
| 2026-04-10 05:09 | 23.69447 | -154.56984 | 38018 ft | 387 kts | 213° |
| 2026-04-10 05:10 | 23.64592 | -154.59510 | 38015 ft | 387 kts | 213° |
| 2026-04-10 05:10 | 23.59789 | -154.62008 | 38014 ft | 387 kts | 213° |
| 2026-04-10 05:11 | 23.54943 | -154.64525 | 38017 ft | 386 kts | 213° |
| 2026-04-10 05:11 | 23.50096 | -154.67041 | 38021 ft | 386 kts | 213° |
| 2026-04-10 05:12 | 23.45301 | -154.69528 | 38013 ft | 386 kts | 213° |
| 2026-04-10 05:12 | 23.40454 | -154.72039 | 38016 ft | 386 kts | 213° |
| 2026-04-10 05:13 | 23.35665 | -154.74519 | 38008 ft | 386 kts | 213° |
| 2026-04-10 05:13 | 23.30814 | -154.77029 | 38014 ft | 386 kts | 213° |
| 2026-04-10 05:14 | 23.26011 | -154.79512 | 38005 ft | 386 kts | 213° |
| 2026-04-10 05:14 | 23.21185 | -154.82005 | 38012 ft | 386 kts | 213° |
| 2026-04-10 05:15 | 23.16295 | -154.84529 | 38002 ft | 387 kts | 212° |
| 2026-04-10 05:15 | 23.11491 | -154.87006 | 38007 ft | 387 kts | 213° |
| 2026-04-10 05:16 | 23.06617 | -154.89517 | 38004 ft | 387 kts | 212° |
| 2026-04-10 05:16 | 23.01802 | -154.91997 | 38009 ft | 388 kts | 212° |
| 2026-04-10 05:17 | 22.96959 | -154.94488 | 38001 ft | 388 kts | 212° |
| 2026-04-10 05:17 | 22.92090 | -154.96991 | 38007 ft | 388 kts | 212° |
| 2026-04-10 05:18 | 22.87272 | -154.99466 | 38003 ft | 388 kts | 212° |
| 2026-04-10 05:18 | 22.82383 | -155.01976 | 38007 ft | 389 kts | 212° |
| 2026-04-10 05:19 | 22.77548 | -155.04455 | 37999 ft | 389 kts | 212° |
| 2026-04-10 05:19 | 22.72646 | -155.06967 | 38000 ft | 390 kts | 212° |
| 2026-04-10 05:20 | 22.67792 | -155.09452 | 37939 ft | 389 kts | 212° |
| 2026-04-10 05:20 | 22.62887 | -155.11962 | 38005 ft | 391 kts | 212° |
| 2026-04-10 05:21 | 22.57968 | -155.14476 | 37998 ft | 391 kts | 212° |
| 2026-04-10 05:21 | 22.53108 | -155.16959 | 37999 ft | 392 kts | 212° |
| 2026-04-10 05:22 | 22.48175 | -155.19477 | 37994 ft | 392 kts | 212° |
| 2026-04-10 05:22 | 22.43290 | -155.21968 | 37994 ft | 393 kts | 212° |
| 2026-04-10 05:23 | 22.38347 | -155.24487 | 37991 ft | 393 kts | 212° |
| 2026-04-10 05:23 | 22.33385 | -155.27014 | 37991 ft | 394 kts | 211° |
| 2026-04-10 05:24 | 22.28479 | -155.29510 | 37990 ft | 395 kts | 211° |
| 2026-04-10 05:24 | 22.23501 | -155.32041 | 37997 ft | 396 kts | 211° |
| 2026-04-10 05:25 | 22.18566 | -155.34547 | 37989 ft | 396 kts | 211° |
| 2026-04-10 05:25 | 22.13580 | -155.37079 | 37983 ft | 397 kts | 211° |
| 2026-04-10 05:26 | 22.08627 | -155.39591 | 37987 ft | 398 kts | 211° |
| 2026-04-10 05:26 | 22.03617 | -155.42130 | 37986 ft | 398 kts | 211° |
| 2026-04-10 05:27 | 21.98602 | -155.44670 | 37987 ft | 399 kts | 211° |
| 2026-04-10 05:27 | 21.93658 | -155.47172 | 37988 ft | 399 kts | 211° |
| 2026-04-10 05:28 | 21.88629 | -155.49715 | 37982 ft | 400 kts | 211° |
| 2026-04-10 05:28 | 21.83649 | -155.52230 | 37986 ft | 400 kts | 211° |
| 2026-04-10 05:29 | 21.78628 | -155.54763 | 37522 ft | 395 kts | 211° |
| 2026-04-10 05:29 | 21.76132 | -155.56023 | 36692 ft | 398 kts | 211° |
| 2026-04-10 05:29 | 21.73619 | -155.57290 | 35874 ft | 401 kts | 210° |
| 2026-04-10 05:30 | 21.71139 | -155.58542 | 35122 ft | 403 kts | 210° |
| 2026-04-10 05:30 | 21.68596 | -155.59824 | 34373 ft | 405 kts | 209° |
| 2026-04-10 05:30 | 21.66040 | -155.61112 | 33571 ft | 407 kts | 208° |
| 2026-04-10 05:30 | 21.63466 | -155.62410 | 32658 ft | 411 kts | 208° |
| 2026-04-10 05:31 | 21.60919 | -155.63693 | 31715 ft | 416 kts | 208° |
| 2026-04-10 05:31 | 21.58281 | -155.65018 | 30734 ft | 422 kts | 207° |
| 2026-04-10 05:31 | 21.55457 | -155.66030 | 29695 ft | 434 kts | 195° |
| 2026-04-10 05:31 | 21.52485 | -155.66684 | 28580 ft | 439 kts | 196° |
| 2026-04-10 05:32 | 21.49491 | -155.67420 | 27498 ft | 444 kts | 196° |
| 2026-04-10 05:32 | 21.46532 | -155.68167 | 26443 ft | 448 kts | 196° |
| 2026-04-10 05:32 | 21.43482 | -155.68950 | 25297 ft | 454 kts | 195° |
| 2026-04-10 05:32 | 21.40391 | -155.69748 | 24188 ft | 459 kts | 195° |
| 2026-04-10 05:33 | 21.37289 | -155.70550 | 23386 ft | 457 kts | 195° |
| 2026-04-10 05:33 | 21.34210 | -155.71346 | 22557 ft | 452 kts | 195° |
| 2026-04-10 05:33 | 21.31228 | -155.72116 | 21783 ft | 448 kts | 195° |
| 2026-04-10 05:33 | 21.28231 | -155.72890 | 21065 ft | 437 kts | 195° |
| 2026-04-10 05:34 | 21.25313 | -155.73641 | 20024 ft | 426 kts | 195° |
| 2026-04-10 05:34 | 21.22461 | -155.74377 | 18993 ft | 418 kts | 194° |
| 2026-04-10 05:34 | 21.19659 | -155.75099 | 18849 ft | 411 kts | 194° |
| 2026-04-10 05:34 | 21.16937 | -155.75801 | 19053 ft | 412 kts | 194° |
| 2026-04-10 05:35 | 21.14148 | -155.76519 | 19271 ft | 413 kts | 194° |
| 2026-04-10 05:35 | 21.11343 | -155.77242 | 19571 ft | 414 kts | 194° |
| 2026-04-10 05:35 | 21.08536 | -155.77965 | 19872 ft | 417 kts | 194° |
| 2026-04-10 05:35 | 21.05713 | -155.78691 | 19969 ft | 418 kts | 194° |
| 2026-04-10 05:36 | 21.02974 | -155.79396 | 19973 ft | 417 kts | 194° |
| 2026-04-10 05:36 | 21.00156 | -155.80120 | 19979 ft | 417 kts | 194° |
| 2026-04-10 05:36 | 20.97334 | -155.80846 | 19982 ft | 417 kts | 194° |
| 2026-04-10 05:36 | 20.94513 | -155.81571 | 19983 ft | 417 kts | 194° |
| 2026-04-10 05:37 | 20.91746 | -155.82282 | 19986 ft | 417 kts | 194° |
| 2026-04-10 05:37 | 20.88929 | -155.83005 | 19981 ft | 416 kts | 194° |
| 2026-04-10 05:37 | 20.86117 | -155.83727 | 19983 ft | 416 kts | 194° |
| 2026-04-10 05:37 | 20.83295 | -155.84451 | 19988 ft | 416 kts | 194° |
| 2026-04-10 05:38 | 20.80478 | -155.85173 | 19984 ft | 416 kts | 194° |
| 2026-04-10 05:38 | 20.77734 | -155.85877 | 19982 ft | 416 kts | 194° |
| 2026-04-10 05:38 | 20.74931 | -155.86595 | 19716 ft | 414 kts | 194° |
| 2026-04-10 05:38 | 20.72163 | -155.87304 | 19128 ft | 399 kts | 194° |
| 2026-04-10 05:39 | 20.69520 | -155.87980 | 18561 ft | 384 kts | 194° |
| 2026-04-10 05:39 | 20.66961 | -155.88635 | 17969 ft | 372 kts | 194° |
| 2026-04-10 05:39 | 20.64531 | -155.89256 | 17334 ft | 362 kts | 194° |
| 2026-04-10 05:39 | 20.62115 | -155.89875 | 16701 ft | 353 kts | 194° |
| 2026-04-10 05:40 | 20.59752 | -155.90479 | 16079 ft | 346 kts | 194° |
| 2026-04-10 05:40 | 20.57391 | -155.91082 | 15448 ft | 351 kts | 194° |
| 2026-04-10 05:40 | 20.55006 | -155.91692 | 14833 ft | 354 kts | 194° |
| 2026-04-10 05:40 | 20.52653 | -155.92294 | 14248 ft | 357 kts | 194° |
| 2026-04-10 05:41 | 20.50235 | -155.92912 | 13649 ft | 359 kts | 194° |
| 2026-04-10 05:41 | 20.47831 | -155.93526 | 12997 ft | 360 kts | 194° |
| 2026-04-10 05:41 | 20.45396 | -155.94148 | 12371 ft | 357 kts | 194° |
| 2026-04-10 05:41 | 20.43093 | -155.94735 | 12230 ft | 331 kts | 194° |
| 2026-04-10 05:42 | 20.40928 | -155.95287 | 12198 ft | 320 kts | 194° |
| 2026-04-10 05:42 | 20.38775 | -155.95837 | 12083 ft | 317 kts | 194° |
| 2026-04-10 05:42 | 20.36623 | -155.96385 | 11651 ft | 320 kts | 194° |
| 2026-04-10 05:42 | 20.34448 | -155.96940 | 11083 ft | 323 kts | 194° |
| 2026-04-10 05:43 | 20.32300 | -155.97487 | 10534 ft | 326 kts | 194° |
| 2026-04-10 05:43 | 20.30120 | -155.98042 | 9987 ft | 317 kts | 194° |
| 2026-04-10 05:43 | 20.28008 | -155.98580 | 9412 ft | 308 kts | 194° |
| 2026-04-10 05:43 | 20.25958 | -155.99102 | 8838 ft | 300 kts | 194° |
| 2026-04-10 05:44 | 20.23951 | -155.99613 | 8268 ft | 293 kts | 194° |
| 2026-04-10 05:44 | 20.22036 | -156.00100 | 7721 ft | 287 kts | 194° |
| 2026-04-10 05:44 | 20.20115 | -156.00588 | 7173 ft | 281 kts | 194° |
| 2026-04-10 05:44 | 20.18216 | -156.01072 | 6669 ft | 281 kts | 194° |
| 2026-04-10 05:45 | 20.16321 | -156.01553 | 6315 ft | 279 kts | 194° |
| 2026-04-10 05:45 | 20.14447 | -156.02030 | 6083 ft | 273 kts | 194° |
| 2026-04-10 05:45 | 20.12688 | -156.02478 | 6067 ft | 259 kts | 193° |
| 2026-04-10 05:45 | 20.10962 | -156.02916 | 6063 ft | 253 kts | 193° |
| 2026-04-10 05:46 | 20.09247 | -156.03341 | 6037 ft | 253 kts | 193° |
| 2026-04-10 05:46 | 20.07532 | -156.03764 | 6041 ft | 252 kts | 193° |
| 2026-04-10 05:46 | 20.05835 | -156.04169 | 6039 ft | 247 kts | 193° |
| 2026-04-10 05:46 | 20.04202 | -156.04560 | 6027 ft | 246 kts | 193° |
| 2026-04-10 05:47 | 20.02531 | -156.04957 | 6022 ft | 246 kts | 193° |
| 2026-04-10 05:47 | 20.00861 | -156.05361 | 6012 ft | 246 kts | 193° |
| 2026-04-10 05:47 | 19.99197 | -156.05769 | 6010 ft | 245 kts | 193° |
| 2026-04-10 05:47 | 19.97564 | -156.06164 | 6012 ft | 246 kts | 193° |
| 2026-04-10 05:48 | 19.95896 | -156.06569 | 6008 ft | 246 kts | 193° |
| 2026-04-10 05:48 | 19.94226 | -156.06972 | 6014 ft | 246 kts | 193° |
| 2026-04-10 05:48 | 19.92557 | -156.07376 | 6007 ft | 246 kts | 193° |
| 2026-04-10 05:48 | 19.90894 | -156.07780 | 6002 ft | 246 kts | 193° |
| 2026-04-10 05:49 | 19.89791 | -156.08047 | 6002 ft | 246 kts | 193° |
| 2026-04-10 05:49 | 19.88152 | -156.08452 | 5999 ft | 247 kts | 193° |
| 2026-04-10 05:49 | 19.86483 | -156.08866 | 5999 ft | 246 kts | 193° |
| 2026-04-10 05:49 | 19.84297 | -156.09518 | 6001 ft | 247 kts | 199° |
| 2026-04-10 05:50 | 19.83215 | -156.09930 | 5994 ft | 240 kts | 199° |
| 2026-04-10 05:50 | 19.81722 | -156.10506 | 6002 ft | 226 kts | 199° |
| 2026-04-10 05:50 | 19.80289 | -156.11060 | 6004 ft | 212 kts | 199° |
| 2026-04-10 05:50 | 19.78935 | -156.11587 | 6002 ft | 205 kts | 199° |
| 2026-04-10 05:51 | 19.77598 | -156.12100 | 6005 ft | 204 kts | 199° |
| 2026-04-10 05:51 | 19.76267 | -156.12615 | 5997 ft | 203 kts | 199° |
| 2026-04-10 05:51 | 19.74972 | -156.13124 | 5998 ft | 203 kts | 199° |
| 2026-04-10 05:51 | 19.73639 | -156.13643 | 5883 ft | 206 kts | 199° |
| 2026-04-10 05:52 | 19.72281 | -156.14174 | 5516 ft | 210 kts | 199° |
| 2026-04-10 05:52 | 19.70905 | -156.14729 | 5158 ft | 213 kts | 199° |
| 2026-04-10 05:52 | 19.69509 | -156.15316 | 4805 ft | 218 kts | 199° |
| 2026-04-10 05:52 | 19.68122 | -156.15912 | 4440 ft | 222 kts | 199° |
| 2026-04-10 05:53 | 19.66674 | -156.16524 | 4059 ft | 226 kts | 199° |
| 2026-04-10 05:53 | 19.65161 | -156.17004 | 3658 ft | 228 kts | 185° |
| 2026-04-10 05:53 | 19.63575 | -156.17086 | 3301 ft | 230 kts | 180° |
| 2026-04-10 05:53 | 19.61989 | -156.17099 | 3038 ft | 228 kts | 179° |
| 2026-04-10 05:54 | 19.60480 | -156.17114 | 3011 ft | 215 kts | 179° |
| 2026-04-10 05:54 | 19.59030 | -156.17124 | 3015 ft | 203 kts | 179° |
| 2026-04-10 05:54 | 19.57620 | -156.17149 | 2830 ft | 203 kts | 179° |
| 2026-04-10 05:54 | 19.56221 | -156.17170 | 2700 ft | 200 kts | 179° |
| 2026-04-10 05:55 | 19.54870 | -156.16888 | 2677 ft | 199 kts | 154° |
| 2026-04-10 05:55 | 19.53716 | -156.16069 | 2715 ft | 202 kts | 139° |
| 2026-04-10 05:55 | 19.52925 | -156.14835 | 2689 ft | 207 kts | 114° |
| 2026-04-10 05:55 | 19.52713 | -156.13304 | 2700 ft | 214 kts | 97° |
| 2026-04-10 05:56 | 19.52639 | -156.11728 | 2696 ft | 214 kts | 98° |
| 2026-04-10 05:56 | 19.52544 | -156.10143 | 2703 ft | 216 kts | 98° |
| 2026-04-10 05:56 | 19.52462 | -156.08551 | 2700 ft | 218 kts | 92° |
| 2026-04-10 05:56 | 19.52992 | -156.07048 | 2659 ft | 227 kts | 51° |
| 2026-04-10 05:57 | 19.54343 | -156.06189 | 2676 ft | 231 kts | 17° |
| 2026-04-10 05:57 | 19.55877 | -156.06057 | 2763 ft | 214 kts | 2° |
| 2026-04-10 05:57 | 19.57345 | -156.06014 | 2734 ft | 206 kts | 5° |
| 2026-04-10 05:57 | 19.58695 | -156.05914 | 2653 ft | 182 kts | 7° |
| 2026-04-10 05:58 | 19.59895 | -156.05806 | 2444 ft | 167 kts | 8° |
| 2026-04-10 05:58 | 19.61030 | -156.05703 | 2218 ft | 162 kts | 7° |
| 2026-04-10 05:58 | 19.62140 | -156.05604 | 2007 ft | 159 kts | 6° |
| 2026-04-10 05:58 | 19.63241 | -156.05506 | 1811 ft | 157 kts | 7° |
| 2026-04-10 05:59 | 19.64319 | -156.05411 | 1592 ft | 153 kts | 7° |
| 2026-04-10 05:59 | 19.65378 | -156.05317 | 1403 ft | 153 kts | 6° |
| 2026-04-10 05:59 | 19.66430 | -156.05224 | 1223 ft | 150 kts | 6° |
| 2026-04-10 05:59 | 19.67454 | -156.05131 | 1059 ft | 145 kts | 5° |
| 2026-04-10 06:00 | 19.68449 | -156.05024 | 901 ft | 141 kts | 5° |
| 2026-04-10 06:00 | 19.69410 | -156.04920 | 659 ft | 138 kts | 3° |
| 2026-04-10 06:00 | 19.69986 | -156.04899 | 469 ft | 138 kts | 1° |
| 2026-04-10 06:00 | 19.70913 | -156.04860 | 333 ft | 129 kts | 5° |
| 2026-04-10 06:01 | 19.71802 | -156.04752 | 166 ft | 130 kts | 3° |
| 2026-04-10 06:01 | 19.72701 | -156.04671 | 58 ft | 125 kts | 6° |
| 2026-04-10 06:01 | 19.73485 | -156.04602 | 53 ft | 97 kts | 5° |
| 2026-04-10 06:01 | 19.73935 | -156.04561 | 53 ft | 42 kts | 5° |
| 2026-04-10 06:02 | 19.74139 | -156.04504 | 54 ft | 12 kts | 91° |
| 2026-04-10 06:02 | 19.74130 | -156.04381 | 48 ft | 22 kts | 95° |
| 2026-04-10 06:02 | 19.74125 | -156.04326 | 52 ft | 4 kts | 96° |
| 2026-04-10 06:02 | 19.74097 | -156.04291 | 51 ft | 9 kts | 169° |
| 2026-04-10 06:03 | 19.74001 | -156.04298 | 50 ft | 18 kts | 185° |
| 2026-04-10 06:03 | 19.73873 | -156.04309 | 49 ft | 16 kts | 185° |
| 2026-04-10 06:03 | 19.73769 | -156.04320 | 50 ft | 14 kts | 186° |
| 2026-04-10 06:03 | 19.73726 | -156.04324 | 50 ft | 3 kts | 184° |
| 2026-04-10 06:04 | 19.73657 | -156.04330 | 47 ft | 14 kts | 185° |
| 2026-04-10 06:04 | 19.73606 | -156.04334 | 51 ft | 0 kts | 181° |
| 2026-04-10 06:04 | 19.73599 | -156.04327 | 46 ft | 2 kts | 126° |
| 2026-04-10 06:04 | 19.73596 | -156.04269 | 51 ft | 12 kts | 92° |
| 2026-04-10 06:05 | 19.73591 | -156.04213 | 52 ft | 1 kts | 95° |
| 2026-04-10 06:05 | 19.73591 | -156.04210 | 52 ft | 0 kts | 95° |